sensor_id;sensor_type;location;lat;lon;timestamp;P1;durP1;ratioP1;P2;durP2;ratioP2
10013;SDS011;45684;48.358;10.746;2023-03-04T00:02:15;39.47;;;25.47;;
10013;SDS011;45684;48.358;10.746;2023-03-04T00:04:43;38.80;;;24.97;;
10013;SDS011;45684;48.358;10.746;2023-03-04T00:07:11;36.57;;;24.70;;
10013;SDS011;45684;48.358;10.746;2023-03-04T00:09:43;41.57;;;25.50;;
10013;SDS011;45684;48.358;10.746;2023-03-04T00:12:12;42.60;;;25.67;;
10013;SDS011;45684;48.358;10.746;2023-03-04T00:14:40;42.50;;;26.53;;
10013;SDS011;45684;48.358;10.746;2023-03-04T00:17:08;42.47;;;26.17;;
10013;SDS011;45684;48.358;10.746;2023-03-04T00:19:36;43.37;;;25.37;;
10013;SDS011;45684;48.358;10.746;2023-03-04T00:22:03;42.80;;;26.40;;
10013;SDS011;45684;48.358;10.746;2023-03-04T00:24:31;38.60;;;25.47;;
10013;SDS011;45684;48.358;10.746;2023-03-04T00:27:00;39.37;;;25.23;;
10013;SDS011;45684;48.358;10.746;2023-03-04T00:29:29;45.00;;;26.03;;
10013;SDS011;45684;48.358;10.746;2023-03-04T00:31:57;40.67;;;25.10;;
10013;SDS011;45684;48.358;10.746;2023-03-04T00:34:25;41.83;;;27.07;;
10013;SDS011;45684;48.358;10.746;2023-03-04T00:36:52;39.90;;;26.23;;
10013;SDS011;45684;48.358;10.746;2023-03-04T00:39:26;44.30;;;27.43;;
10013;SDS011;45684;48.358;10.746;2023-03-04T00:41:54;44.10;;;27.87;;
10013;SDS011;45684;48.358;10.746;2023-03-04T00:44:22;45.70;;;28.67;;
10013;SDS011;45684;48.358;10.746;2023-03-04T00:46:51;42.70;;;27.43;;
10013;SDS011;45684;48.358;10.746;2023-03-04T00:49:19;45.43;;;27.47;;
10013;SDS011;45684;48.358;10.746;2023-03-04T00:51:47;46.23;;;27.17;;
10013;SDS011;45684;48.358;10.746;2023-03-04T00:54:15;42.73;;;27.33;;
10013;SDS011;45684;48.358;10.746;2023-03-04T00:56:43;42.70;;;25.67;;
10013;SDS011;45684;48.358;10.746;2023-03-04T00:59:10;41.00;;;26.63;;
10013;SDS011;45684;48.358;10.746;2023-03-04T01:01:39;46.57;;;28.43;;
10013;SDS011;45684;48.358;10.746;2023-03-04T01:04:08;43.90;;;27.67;;
10013;SDS011;45684;48.358;10.746;2023-03-04T01:06:36;40.47;;;26.13;;
10013;SDS011;45684;48.358;10.746;2023-03-04T01:09:04;41.80;;;26.33;;
10013;SDS011;45684;48.358;10.746;2023-03-04T01:11:31;46.60;;;28.77;;
10013;SDS011;45684;48.358;10.746;2023-03-04T01:13:59;44.93;;;27.70;;
10013;SDS011;45684;48.358;10.746;2023-03-04T01:16:27;42.07;;;26.20;;
10013;SDS011;45684;48.358;10.746;2023-03-04T01:18:55;41.57;;;25.50;;
10013;SDS011;45684;48.358;10.746;2023-03-04T01:21:24;45.67;;;27.83;;
10013;SDS011;45684;48.358;10.746;2023-03-04T01:23:54;40.50;;;25.70;;
10013;SDS011;45684;48.358;10.746;2023-03-04T01:26:22;42.37;;;27.03;;
10013;SDS011;45684;48.358;10.746;2023-03-04T01:28:49;43.27;;;27.10;;
10013;SDS011;45684;48.358;10.746;2023-03-04T01:31:18;40.73;;;25.33;;
10013;SDS011;45684;48.358;10.746;2023-03-04T01:33:46;42.60;;;27.17;;
10013;SDS011;45684;48.358;10.746;2023-03-04T01:36:14;52.63;;;32.40;;
10013;SDS011;45684;48.358;10.746;2023-03-04T01:38:43;43.90;;;28.50;;
10013;SDS011;45684;48.358;10.746;2023-03-04T01:41:11;43.20;;;27.20;;
10013;SDS011;45684;48.358;10.746;2023-03-04T01:43:40;37.97;;;23.77;;
10013;SDS011;45684;48.358;10.746;2023-03-04T01:46:08;41.70;;;26.23;;
10013;SDS011;45684;48.358;10.746;2023-03-04T01:48:40;38.20;;;24.20;;
10013;SDS011;45684;48.358;10.746;2023-03-04T01:51:10;43.20;;;26.70;;
10013;SDS011;45684;48.358;10.746;2023-03-04T01:53:41;43.80;;;26.27;;
10013;SDS011;45684;48.358;10.746;2023-03-04T01:56:14;44.13;;;27.53;;
10013;SDS011;45684;48.358;10.746;2023-03-04T01:58:46;40.67;;;25.83;;
10013;SDS011;45684;48.358;10.746;2023-03-04T02:01:34;41.70;;;26.43;;
10013;SDS011;45684;48.358;10.746;2023-03-04T02:04:03;42.93;;;24.47;;
10013;SDS011;45684;48.358;10.746;2023-03-04T02:06:33;40.27;;;25.90;;
10013;SDS011;45684;48.358;10.746;2023-03-04T02:09:02;40.87;;;24.63;;
10013;SDS011;45684;48.358;10.746;2023-03-04T02:11:32;42.50;;;26.00;;
10013;SDS011;45684;48.358;10.746;2023-03-04T02:14:02;44.00;;;25.70;;
10013;SDS011;45684;48.358;10.746;2023-03-04T02:16:30;44.00;;;26.70;;
10013;SDS011;45684;48.358;10.746;2023-03-04T02:18:59;45.60;;;27.67;;
10013;SDS011;45684;48.358;10.746;2023-03-04T02:21:27;43.43;;;27.07;;
10013;SDS011;45684;48.358;10.746;2023-03-04T02:23:59;42.00;;;25.83;;
10013;SDS011;45684;48.358;10.746;2023-03-04T02:26:34;43.03;;;25.90;;
10013;SDS011;45684;48.358;10.746;2023-03-04T02:29:02;41.33;;;25.93;;
10013;SDS011;45684;48.358;10.746;2023-03-04T02:31:31;42.77;;;25.80;;
10013;SDS011;45684;48.358;10.746;2023-03-04T02:34:02;42.17;;;27.33;;
10013;SDS011;45684;48.358;10.746;2023-03-04T02:36:33;37.97;;;25.37;;
10013;SDS011;45684;48.358;10.746;2023-03-04T02:39:03;43.57;;;27.27;;
10013;SDS011;45684;48.358;10.746;2023-03-04T02:41:36;41.57;;;25.80;;
10013;SDS011;45684;48.358;10.746;2023-03-04T02:44:08;41.23;;;25.33;;
10013;SDS011;45684;48.358;10.746;2023-03-04T02:46:43;47.87;;;27.93;;
10013;SDS011;45684;48.358;10.746;2023-03-04T02:49:11;43.60;;;26.37;;
10013;SDS011;45684;48.358;10.746;2023-03-04T02:51:40;42.47;;;26.93;;
10013;SDS011;45684;48.358;10.746;2023-03-04T02:54:13;45.87;;;27.53;;
10013;SDS011;45684;48.358;10.746;2023-03-04T02:56:46;44.10;;;27.07;;
10013;SDS011;45684;48.358;10.746;2023-03-04T02:59:16;48.53;;;28.00;;
10013;SDS011;45684;48.358;10.746;2023-03-04T03:01:44;47.23;;;26.57;;
10013;SDS011;45684;48.358;10.746;2023-03-04T03:04:13;46.17;;;27.33;;
10013;SDS011;45684;48.358;10.746;2023-03-04T03:06:43;41.87;;;25.90;;
10013;SDS011;45684;48.358;10.746;2023-03-04T03:09:11;45.20;;;26.70;;
10013;SDS011;45684;48.358;10.746;2023-03-04T03:11:39;44.00;;;27.07;;
10013;SDS011;45684;48.358;10.746;2023-03-04T03:14:09;47.37;;;28.93;;
10013;SDS011;45684;48.358;10.746;2023-03-04T03:16:37;46.13;;;27.53;;
10013;SDS011;45684;48.358;10.746;2023-03-04T03:19:05;45.63;;;27.13;;
10013;SDS011;45684;48.358;10.746;2023-03-04T03:21:35;45.57;;;27.57;;
10013;SDS011;45684;48.358;10.746;2023-03-04T03:24:02;44.97;;;26.83;;
10013;SDS011;45684;48.358;10.746;2023-03-04T03:26:30;41.83;;;24.93;;
10013;SDS011;45684;48.358;10.746;2023-03-04T03:28:58;46.03;;;27.53;;
10013;SDS011;45684;48.358;10.746;2023-03-04T03:31:28;46.70;;;26.53;;
10013;SDS011;45684;48.358;10.746;2023-03-04T03:33:56;44.87;;;27.47;;
10013;SDS011;45684;48.358;10.746;2023-03-04T03:36:25;44.37;;;26.07;;
10013;SDS011;45684;48.358;10.746;2023-03-04T03:38:53;45.40;;;27.63;;
10013;SDS011;45684;48.358;10.746;2023-03-04T03:41:21;41.83;;;26.97;;
10013;SDS011;45684;48.358;10.746;2023-03-04T03:43:49;45.17;;;26.43;;
10013;SDS011;45684;48.358;10.746;2023-03-04T03:46:16;42.90;;;26.60;;
10013;SDS011;45684;48.358;10.746;2023-03-04T03:48:45;43.33;;;25.57;;
10013;SDS011;45684;48.358;10.746;2023-03-04T03:51:13;48.37;;;28.07;;
10013;SDS011;45684;48.358;10.746;2023-03-04T03:53:41;44.17;;;26.77;;
10013;SDS011;45684;48.358;10.746;2023-03-04T03:56:09;46.70;;;26.40;;
10013;SDS011;45684;48.358;10.746;2023-03-04T03:58:37;39.37;;;24.53;;
10013;SDS011;45684;48.358;10.746;2023-03-04T04:01:04;42.40;;;25.10;;
10013;SDS011;45684;48.358;10.746;2023-03-04T04:03:32;50.03;;;27.67;;
10013;SDS011;45684;48.358;10.746;2023-03-04T04:06:01;43.63;;;26.73;;
10013;SDS011;45684;48.358;10.746;2023-03-04T04:08:29;44.20;;;27.87;;
10013;SDS011;45684;48.358;10.746;2023-03-04T04:10:58;41.83;;;26.07;;
10013;SDS011;45684;48.358;10.746;2023-03-04T04:13:26;46.57;;;26.93;;
10013;SDS011;45684;48.358;10.746;2023-03-04T04:15:54;45.47;;;26.43;;
10013;SDS011;45684;48.358;10.746;2023-03-04T04:18:21;45.60;;;26.70;;
10013;SDS011;45684;48.358;10.746;2023-03-04T04:20:51;44.43;;;27.67;;
10013;SDS011;45684;48.358;10.746;2023-03-04T04:23:21;42.73;;;25.53;;
10013;SDS011;45684;48.358;10.746;2023-03-04T04:25:49;42.90;;;26.63;;
10013;SDS011;45684;48.358;10.746;2023-03-04T04:28:17;46.23;;;27.17;;
10013;SDS011;45684;48.358;10.746;2023-03-04T04:30:45;41.33;;;26.03;;
10013;SDS011;45684;48.358;10.746;2023-03-04T04:33:13;42.03;;;25.87;;
10013;SDS011;45684;48.358;10.746;2023-03-04T04:35:40;40.90;;;26.07;;
10013;SDS011;45684;48.358;10.746;2023-03-04T04:38:09;41.67;;;25.87;;
10013;SDS011;45684;48.358;10.746;2023-03-04T04:40:38;40.57;;;26.60;;
10013;SDS011;45684;48.358;10.746;2023-03-04T04:43:08;51.20;;;27.23;;
10013;SDS011;45684;48.358;10.746;2023-03-04T04:45:35;49.53;;;27.47;;
10013;SDS011;45684;48.358;10.746;2023-03-04T04:48:03;46.20;;;27.00;;
10013;SDS011;45684;48.358;10.746;2023-03-04T04:50:31;44.63;;;25.33;;
10013;SDS011;45684;48.358;10.746;2023-03-04T04:52:59;43.77;;;26.53;;
10013;SDS011;45684;48.358;10.746;2023-03-04T04:55:27;44.87;;;26.20;;
10013;SDS011;45684;48.358;10.746;2023-03-04T04:57:56;46.27;;;26.70;;
10013;SDS011;45684;48.358;10.746;2023-03-04T05:00:23;43.83;;;25.57;;
10013;SDS011;45684;48.358;10.746;2023-03-04T05:02:51;50.13;;;28.00;;
10013;SDS011;45684;48.358;10.746;2023-03-04T05:05:19;49.97;;;28.70;;
10013;SDS011;45684;48.358;10.746;2023-03-04T05:07:47;48.87;;;28.43;;
10013;SDS011;45684;48.358;10.746;2023-03-04T05:10:15;47.43;;;27.27;;
10013;SDS011;45684;48.358;10.746;2023-03-04T05:12:42;44.97;;;27.63;;
10013;SDS011;45684;48.358;10.746;2023-03-04T05:15:12;45.43;;;28.50;;
10013;SDS011;45684;48.358;10.746;2023-03-04T05:17:40;48.07;;;27.53;;
10013;SDS011;45684;48.358;10.746;2023-03-04T05:20:08;44.17;;;26.80;;
10013;SDS011;45684;48.358;10.746;2023-03-04T05:22:36;45.47;;;27.20;;
10013;SDS011;45684;48.358;10.746;2023-03-04T05:25:04;47.10;;;27.70;;
10013;SDS011;45684;48.358;10.746;2023-03-04T05:27:33;48.10;;;27.30;;
10013;SDS011;45684;48.358;10.746;2023-03-04T05:30:01;46.67;;;27.93;;
10013;SDS011;45684;48.358;10.746;2023-03-04T05:32:30;45.57;;;26.17;;
10013;SDS011;45684;48.358;10.746;2023-03-04T05:34:58;43.00;;;26.73;;
10013;SDS011;45684;48.358;10.746;2023-03-04T05:37:25;48.43;;;27.23;;
10013;SDS011;45684;48.358;10.746;2023-03-04T05:39:53;46.63;;;26.70;;
10013;SDS011;45684;48.358;10.746;2023-03-04T05:42:21;47.13;;;27.10;;
10013;SDS011;45684;48.358;10.746;2023-03-04T05:44:48;43.50;;;26.43;;
10013;SDS011;45684;48.358;10.746;2023-03-04T05:47:16;47.20;;;25.97;;
10013;SDS011;45684;48.358;10.746;2023-03-04T05:49:45;42.60;;;26.20;;
10013;SDS011;45684;48.358;10.746;2023-03-04T05:52:13;42.93;;;26.50;;
10013;SDS011;45684;48.358;10.746;2023-03-04T05:54:41;46.03;;;27.40;;
10013;SDS011;45684;48.358;10.746;2023-03-04T05:57:09;41.07;;;25.90;;
10013;SDS011;45684;48.358;10.746;2023-03-04T05:59:42;49.87;;;28.03;;
10013;SDS011;45684;48.358;10.746;2023-03-04T06:02:09;48.03;;;28.13;;
10013;SDS011;45684;48.358;10.746;2023-03-04T06:04:38;48.00;;;27.73;;
10013;SDS011;45684;48.358;10.746;2023-03-04T06:07:07;45.60;;;27.00;;
10013;SDS011;45684;48.358;10.746;2023-03-04T06:09:35;46.13;;;27.93;;
10013;SDS011;45684;48.358;10.746;2023-03-04T06:12:03;45.23;;;27.27;;
10013;SDS011;45684;48.358;10.746;2023-03-04T06:14:31;46.07;;;27.53;;
10013;SDS011;45684;48.358;10.746;2023-03-04T06:16:58;47.43;;;26.80;;
10013;SDS011;45684;48.358;10.746;2023-03-04T06:19:26;44.53;;;27.20;;
10013;SDS011;45684;48.358;10.746;2023-03-04T06:21:54;48.27;;;28.67;;
10013;SDS011;45684;48.358;10.746;2023-03-04T06:24:23;48.10;;;28.60;;
10013;SDS011;45684;48.358;10.746;2023-03-04T06:26:51;50.57;;;28.03;;
10013;SDS011;45684;48.358;10.746;2023-03-04T06:29:19;45.40;;;28.33;;
10013;SDS011;45684;48.358;10.746;2023-03-04T06:31:47;48.33;;;28.27;;
10013;SDS011;45684;48.358;10.746;2023-03-04T06:34:14;44.33;;;26.70;;
10013;SDS011;45684;48.358;10.746;2023-03-04T06:36:42;48.73;;;28.23;;
10013;SDS011;45684;48.358;10.746;2023-03-04T06:39:10;51.27;;;28.60;;
10013;SDS011;45684;48.358;10.746;2023-03-04T06:41:39;43.50;;;27.33;;
10013;SDS011;45684;48.358;10.746;2023-03-04T06:44:07;47.90;;;29.00;;
10013;SDS011;45684;48.358;10.746;2023-03-04T06:46:35;45.07;;;27.37;;
10013;SDS011;45684;48.358;10.746;2023-03-04T06:49:03;46.60;;;28.60;;
10013;SDS011;45684;48.358;10.746;2023-03-04T06:51:30;47.33;;;28.53;;
10013;SDS011;45684;48.358;10.746;2023-03-04T06:53:58;47.13;;;28.63;;
10013;SDS011;45684;48.358;10.746;2023-03-04T06:56:26;44.57;;;26.33;;
10013;SDS011;45684;48.358;10.746;2023-03-04T06:58:55;44.60;;;27.80;;
10013;SDS011;45684;48.358;10.746;2023-03-04T07:01:23;47.67;;;29.03;;
10013;SDS011;45684;48.358;10.746;2023-03-04T07:03:52;51.97;;;29.17;;
10013;SDS011;45684;48.358;10.746;2023-03-04T07:06:22;47.10;;;28.70;;
10013;SDS011;45684;48.358;10.746;2023-03-04T07:08:52;48.87;;;29.80;;
10013;SDS011;45684;48.358;10.746;2023-03-04T07:11:21;47.07;;;28.80;;
10013;SDS011;45684;48.358;10.746;2023-03-04T07:13:49;53.00;;;31.53;;
10013;SDS011;45684;48.358;10.746;2023-03-04T07:16:19;50.37;;;29.90;;
10013;SDS011;45684;48.358;10.746;2023-03-04T07:18:48;46.87;;;29.70;;
10013;SDS011;45684;48.358;10.746;2023-03-04T07:21:16;55.90;;;32.13;;
10013;SDS011;45684;48.358;10.746;2023-03-04T07:23:44;55.40;;;33.10;;
10013;SDS011;45684;48.358;10.746;2023-03-04T07:26:12;52.10;;;31.37;;
10013;SDS011;45684;48.358;10.746;2023-03-04T07:28:40;50.97;;;30.80;;
10013;SDS011;45684;48.358;10.746;2023-03-04T07:31:12;50.70;;;31.67;;
10013;SDS011;45684;48.358;10.746;2023-03-04T07:33:49;56.30;;;32.27;;
10013;SDS011;45684;48.358;10.746;2023-03-04T07:36:17;49.30;;;30.57;;
10013;SDS011;45684;48.358;10.746;2023-03-04T07:38:46;51.33;;;31.13;;
10013;SDS011;45684;48.358;10.746;2023-03-04T07:41:16;49.60;;;30.83;;
10013;SDS011;45684;48.358;10.746;2023-03-04T07:43:44;56.67;;;33.47;;
10013;SDS011;45684;48.358;10.746;2023-03-04T07:46:12;59.03;;;35.00;;
10013;SDS011;45684;48.358;10.746;2023-03-04T07:48:41;63.07;;;36.47;;
10013;SDS011;45684;48.358;10.746;2023-03-04T07:51:10;61.10;;;35.63;;
10013;SDS011;45684;48.358;10.746;2023-03-04T07:53:40;60.93;;;36.10;;
10013;SDS011;45684;48.358;10.746;2023-03-04T07:56:10;61.50;;;35.20;;
10013;SDS011;45684;48.358;10.746;2023-03-04T07:58:39;59.20;;;34.93;;
10013;SDS011;45684;48.358;10.746;2023-03-04T08:01:07;56.03;;;35.17;;
10013;SDS011;45684;48.358;10.746;2023-03-04T08:03:37;56.07;;;36.00;;
10013;SDS011;45684;48.358;10.746;2023-03-04T08:06:06;54.77;;;34.73;;
10013;SDS011;45684;48.358;10.746;2023-03-04T08:08:35;55.43;;;34.20;;
10013;SDS011;45684;48.358;10.746;2023-03-04T08:11:03;53.90;;;33.60;;
10013;SDS011;45684;48.358;10.746;2023-03-04T08:13:32;53.97;;;34.37;;
10013;SDS011;45684;48.358;10.746;2023-03-04T08:16:00;51.87;;;32.73;;
10013;SDS011;45684;48.358;10.746;2023-03-04T08:18:28;53.50;;;32.53;;
10013;SDS011;45684;48.358;10.746;2023-03-04T08:20:56;48.93;;;31.43;;
10013;SDS011;45684;48.358;10.746;2023-03-04T08:23:25;46.73;;;31.23;;
10013;SDS011;45684;48.358;10.746;2023-03-04T08:25:53;50.57;;;31.00;;
10013;SDS011;45684;48.358;10.746;2023-03-04T08:28:21;46.63;;;30.47;;
10013;SDS011;45684;48.358;10.746;2023-03-04T08:30:51;46.23;;;29.93;;
10013;SDS011;45684;48.358;10.746;2023-03-04T08:33:20;46.40;;;31.53;;
10013;SDS011;45684;48.358;10.746;2023-03-04T08:35:47;43.60;;;29.27;;
10013;SDS011;45684;48.358;10.746;2023-03-04T08:38:15;44.17;;;29.47;;
10013;SDS011;45684;48.358;10.746;2023-03-04T08:40:44;47.10;;;28.67;;
10013;SDS011;45684;48.358;10.746;2023-03-04T08:43:12;43.30;;;28.47;;
10013;SDS011;45684;48.358;10.746;2023-03-04T08:45:40;41.27;;;27.43;;
10013;SDS011;45684;48.358;10.746;2023-03-04T08:48:07;38.53;;;26.97;;
10013;SDS011;45684;48.358;10.746;2023-03-04T08:50:35;41.87;;;26.60;;
10013;SDS011;45684;48.358;10.746;2023-03-04T08:53:03;38.87;;;25.30;;
10013;SDS011;45684;48.358;10.746;2023-03-04T08:55:31;41.90;;;26.70;;
10013;SDS011;45684;48.358;10.746;2023-03-04T08:58:00;42.60;;;26.87;;
10013;SDS011;45684;48.358;10.746;2023-03-04T09:00:27;38.63;;;26.20;;
10013;SDS011;45684;48.358;10.746;2023-03-04T09:02:55;37.57;;;24.20;;
10013;SDS011;45684;48.358;10.746;2023-03-04T09:05:23;41.10;;;26.43;;
10013;SDS011;45684;48.358;10.746;2023-03-04T09:07:51;33.80;;;25.17;;
10013;SDS011;45684;48.358;10.746;2023-03-04T09:10:19;43.20;;;26.60;;
10013;SDS011;45684;48.358;10.746;2023-03-04T09:12:47;38.73;;;24.93;;
10013;SDS011;45684;48.358;10.746;2023-03-04T09:15:16;36.03;;;24.67;;
10013;SDS011;45684;48.358;10.746;2023-03-04T09:17:44;34.07;;;23.40;;
10013;SDS011;45684;48.358;10.746;2023-03-04T09:20:12;34.27;;;22.93;;
10013;SDS011;45684;48.358;10.746;2023-03-04T09:22:40;33.47;;;22.63;;
10013;SDS011;45684;48.358;10.746;2023-03-04T09:25:10;32.73;;;22.37;;
10013;SDS011;45684;48.358;10.746;2023-03-04T09:27:40;32.33;;;21.73;;
10013;SDS011;45684;48.358;10.746;2023-03-04T09:30:08;32.40;;;22.87;;
10013;SDS011;45684;48.358;10.746;2023-03-04T09:32:39;31.27;;;21.03;;
10013;SDS011;45684;48.358;10.746;2023-03-04T09:35:07;28.30;;;19.83;;
10013;SDS011;45684;48.358;10.746;2023-03-04T09:37:35;28.83;;;20.63;;
10013;SDS011;45684;48.358;10.746;2023-03-04T09:40:07;29.60;;;20.90;;
10013;SDS011;45684;48.358;10.746;2023-03-04T09:42:46;32.03;;;22.83;;
10013;SDS011;45684;48.358;10.746;2023-03-04T09:45:16;34.93;;;22.17;;
10013;SDS011;45684;48.358;10.746;2023-03-04T09:47:48;30.03;;;20.93;;
10013;SDS011;45684;48.358;10.746;2023-03-04T09:50:19;28.83;;;20.97;;
10013;SDS011;45684;48.358;10.746;2023-03-04T09:52:52;31.17;;;20.33;;
10013;SDS011;45684;48.358;10.746;2023-03-04T09:55:30;25.33;;;18.93;;
10013;SDS011;45684;48.358;10.746;2023-03-04T09:58:05;26.80;;;19.33;;
10013;SDS011;45684;48.358;10.746;2023-03-04T10:00:41;28.70;;;19.63;;
10013;SDS011;45684;48.358;10.746;2023-03-04T10:03:13;23.70;;;17.70;;
10013;SDS011;45684;48.358;10.746;2023-03-04T10:05:47;26.13;;;18.63;;
10013;SDS011;45684;48.358;10.746;2023-03-04T10:08:29;24.30;;;17.30;;
10013;SDS011;45684;48.358;10.746;2023-03-04T10:11:02;25.80;;;17.57;;
10013;SDS011;45684;48.358;10.746;2023-03-04T10:13:37;24.57;;;17.33;;
10013;SDS011;45684;48.358;10.746;2023-03-04T10:16:11;25.63;;;18.13;;
10013;SDS011;45684;48.358;10.746;2023-03-04T10:18:47;22.17;;;16.53;;
10013;SDS011;45684;48.358;10.746;2023-03-04T10:21:20;24.53;;;16.73;;
10013;SDS011;45684;48.358;10.746;2023-03-04T10:23:53;23.40;;;17.87;;
10013;SDS011;45684;48.358;10.746;2023-03-04T10:26:24;27.47;;;17.60;;
10013;SDS011;45684;48.358;10.746;2023-03-04T10:28:58;25.07;;;18.27;;
10013;SDS011;45684;48.358;10.746;2023-03-04T10:31:30;27.13;;;19.20;;
10013;SDS011;45684;48.358;10.746;2023-03-04T10:34:03;25.40;;;18.43;;
10013;SDS011;45684;48.358;10.746;2023-03-04T10:36:37;24.67;;;18.40;;
10013;SDS011;45684;48.358;10.746;2023-03-04T10:39:17;31.07;;;20.13;;
10013;SDS011;45684;48.358;10.746;2023-03-04T10:41:52;26.80;;;19.27;;
10013;SDS011;45684;48.358;10.746;2023-03-04T10:44:23;24.83;;;18.90;;
10013;SDS011;45684;48.358;10.746;2023-03-04T10:46:52;22.93;;;17.50;;
10013;SDS011;45684;48.358;10.746;2023-03-04T10:49:24;26.37;;;20.10;;
10013;SDS011;45684;48.358;10.746;2023-03-04T10:51:54;25.80;;;18.83;;
10013;SDS011;45684;48.358;10.746;2023-03-04T10:54:29;26.23;;;19.00;;
10013;SDS011;45684;48.358;10.746;2023-03-04T10:57:03;25.63;;;18.87;;
10013;SDS011;45684;48.358;10.746;2023-03-04T10:59:47;24.80;;;17.37;;
10013;SDS011;45684;48.358;10.746;2023-03-04T11:02:19;26.37;;;17.77;;
10013;SDS011;45684;48.358;10.746;2023-03-04T11:04:51;23.53;;;17.20;;
10013;SDS011;45684;48.358;10.746;2023-03-04T11:07:21;23.17;;;17.27;;
10013;SDS011;45684;48.358;10.746;2023-03-04T11:09:51;21.17;;;16.00;;
10013;SDS011;45684;48.358;10.746;2023-03-04T11:12:31;23.63;;;16.53;;
10013;SDS011;45684;48.358;10.746;2023-03-04T11:15:01;24.23;;;16.40;;
10013;SDS011;45684;48.358;10.746;2023-03-04T11:17:38;21.23;;;16.30;;
10013;SDS011;45684;48.358;10.746;2023-03-04T11:20:26;23.60;;;17.57;;
10013;SDS011;45684;48.358;10.746;2023-03-04T11:22:59;21.83;;;16.53;;
10013;SDS011;45684;48.358;10.746;2023-03-04T11:25:32;19.97;;;14.77;;
10013;SDS011;45684;48.358;10.746;2023-03-04T11:28:02;20.07;;;14.90;;
10013;SDS011;45684;48.358;10.746;2023-03-04T11:30:38;20.90;;;14.67;;
10013;SDS011;45684;48.358;10.746;2023-03-04T11:33:15;20.57;;;14.80;;
10013;SDS011;45684;48.358;10.746;2023-03-04T11:38:43;19.47;;;14.77;;
10013;SDS011;45684;48.358;10.746;2023-03-04T11:41:15;19.87;;;15.27;;
10013;SDS011;45684;48.358;10.746;2023-03-04T11:43:47;20.93;;;15.37;;
10013;SDS011;45684;48.358;10.746;2023-03-04T11:46:31;22.20;;;15.93;;
10013;SDS011;45684;48.358;10.746;2023-03-04T11:52:53;20.40;;;15.60;;
10013;SDS011;45684;48.358;10.746;2023-03-04T11:55:39;21.27;;;15.43;;
10013;SDS011;45684;48.358;10.746;2023-03-04T11:58:22;22.40;;;15.80;;
10013;SDS011;45684;48.358;10.746;2023-03-04T12:01:08;21.17;;;15.50;;
10013;SDS011;45684;48.358;10.746;2023-03-04T12:03:43;19.77;;;14.87;;
10013;SDS011;45684;48.358;10.746;2023-03-04T12:06:37;20.40;;;14.50;;
10013;SDS011;45684;48.358;10.746;2023-03-04T12:09:27;20.53;;;14.53;;
10013;SDS011;45684;48.358;10.746;2023-03-04T12:12:06;19.53;;;15.00;;
10013;SDS011;45684;48.358;10.746;2023-03-04T12:14:50;19.83;;;14.90;;
10013;SDS011;45684;48.358;10.746;2023-03-04T12:17:34;17.37;;;13.87;;
10013;SDS011;45684;48.358;10.746;2023-03-04T12:20:15;18.60;;;13.97;;
10013;SDS011;45684;48.358;10.746;2023-03-04T12:23:15;16.33;;;12.13;;
10013;SDS011;45684;48.358;10.746;2023-03-04T12:25:58;17.43;;;13.23;;
10013;SDS011;45684;48.358;10.746;2023-03-04T12:28:33;18.00;;;13.57;;
10013;SDS011;45684;48.358;10.746;2023-03-04T12:31:33;18.27;;;13.00;;
10013;SDS011;45684;48.358;10.746;2023-03-04T12:37:02;16.87;;;12.57;;
10013;SDS011;45684;48.358;10.746;2023-03-04T12:39:38;19.57;;;16.67;;
10013;SDS011;45684;48.358;10.746;2023-03-04T12:42:12;17.57;;;13.23;;
10013;SDS011;45684;48.358;10.746;2023-03-04T12:44:51;16.33;;;12.47;;
10013;SDS011;45684;48.358;10.746;2023-03-04T12:47:27;15.73;;;12.27;;
10013;SDS011;45684;48.358;10.746;2023-03-04T12:50:07;16.77;;;12.90;;
10013;SDS011;45684;48.358;10.746;2023-03-04T12:52:51;16.97;;;12.83;;
10013;SDS011;45684;48.358;10.746;2023-03-04T12:55:29;16.07;;;12.57;;
10013;SDS011;45684;48.358;10.746;2023-03-04T12:58:04;16.53;;;11.70;;
10013;SDS011;45684;48.358;10.746;2023-03-04T13:00:36;15.97;;;12.20;;
10013;SDS011;45684;48.358;10.746;2023-03-04T13:03:16;14.73;;;11.17;;
10013;SDS011;45684;48.358;10.746;2023-03-04T13:08:41;15.47;;;12.20;;
10013;SDS011;45684;48.358;10.746;2023-03-04T13:14:30;15.47;;;12.07;;
10013;SDS011;45684;48.358;10.746;2023-03-04T13:17:05;19.00;;;12.17;;
10013;SDS011;45684;48.358;10.746;2023-03-04T13:19:51;16.47;;;12.10;;
10013;SDS011;45684;48.358;10.746;2023-03-04T13:22:26;14.77;;;11.23;;
10013;SDS011;45684;48.358;10.746;2023-03-04T13:28:14;17.23;;;12.17;;
10013;SDS011;45684;48.358;10.746;2023-03-04T13:33:59;16.23;;;12.70;;
10013;SDS011;45684;48.358;10.746;2023-03-04T13:36:29;17.23;;;11.73;;
10013;SDS011;45684;48.358;10.746;2023-03-04T13:39:34;17.47;;;12.10;;
10013;SDS011;45684;48.358;10.746;2023-03-04T13:42:03;14.77;;;11.87;;
10013;SDS011;45684;48.358;10.746;2023-03-04T13:44:56;16.63;;;11.57;;
10013;SDS011;45684;48.358;10.746;2023-03-04T13:47:29;17.73;;;12.43;;
10013;SDS011;45684;48.358;10.746;2023-03-04T13:50:23;16.10;;;11.50;;
10013;SDS011;45684;48.358;10.746;2023-03-04T13:52:58;16.27;;;12.43;;
10013;SDS011;45684;48.358;10.746;2023-03-04T13:55:32;16.53;;;11.80;;
10013;SDS011;45684;48.358;10.746;2023-03-04T13:58:12;17.77;;;13.07;;
10013;SDS011;45684;48.358;10.746;2023-03-04T14:00:50;15.63;;;12.03;;
10013;SDS011;45684;48.358;10.746;2023-03-04T14:03:20;17.03;;;12.87;;
10013;SDS011;45684;48.358;10.746;2023-03-04T14:08:36;17.30;;;12.27;;
10013;SDS011;45684;48.358;10.746;2023-03-04T14:11:04;15.43;;;11.53;;
10013;SDS011;45684;48.358;10.746;2023-03-04T14:13:31;15.20;;;11.50;;
10013;SDS011;45684;48.358;10.746;2023-03-04T14:16:00;14.87;;;11.37;;
10013;SDS011;45684;48.358;10.746;2023-03-04T14:18:28;14.10;;;11.40;;
10013;SDS011;45684;48.358;10.746;2023-03-04T14:20:57;15.97;;;11.67;;
10013;SDS011;45684;48.358;10.746;2023-03-04T14:23:27;16.20;;;11.40;;
10013;SDS011;45684;48.358;10.746;2023-03-04T14:26:04;16.00;;;11.00;;
10013;SDS011;45684;48.358;10.746;2023-03-04T14:28:33;15.23;;;11.13;;
10013;SDS011;45684;48.358;10.746;2023-03-04T14:31:13;15.77;;;11.57;;
10013;SDS011;45684;48.358;10.746;2023-03-04T14:33:44;16.77;;;11.60;;
10013;SDS011;45684;48.358;10.746;2023-03-04T14:36:15;14.20;;;10.40;;
10013;SDS011;45684;48.358;10.746;2023-03-04T14:38:48;14.67;;;11.23;;
10013;SDS011;45684;48.358;10.746;2023-03-04T14:41:20;13.43;;;10.43;;
10013;SDS011;45684;48.358;10.746;2023-03-04T14:43:53;15.37;;;10.80;;
10013;SDS011;45684;48.358;10.746;2023-03-04T14:46:32;16.13;;;11.23;;
10013;SDS011;45684;48.358;10.746;2023-03-04T14:49:05;14.27;;;10.43;;
10013;SDS011;45684;48.358;10.746;2023-03-04T14:51:41;14.27;;;10.43;;
10013;SDS011;45684;48.358;10.746;2023-03-04T14:54:26;14.73;;;10.70;;
10013;SDS011;45684;48.358;10.746;2023-03-04T14:56:59;15.73;;;11.60;;